Time,TemperatureF,DewpointF,PressureIn,WindDirection,WindDirectionDegrees,WindSpeedMPH,WindSpeedGustMPH,Humidity,HourlyPrecipIn,Conditions,Clouds,dailyrainin,SoftwareType,DateUTC
2013-10-10 00:02:00,56.1,42.8,30.02,North,1,0.0,0.0,61,0.00,CLR,,0.00,WeatherDisplay:10.37,2013-10-10 05:02:00,
2013-10-10 00:07:00,56.1,43.3,30.02,North,1,0.0,0.0,62,0.00,CLR,,0.00,WeatherDisplay:10.37,2013-10-10 05:07:00,
2013-10-10 00:12:00,56.1,43.3,30.02,North,1,0.0,0.0,62,0.00,CLR,,0.00,WeatherDisplay:10.37,2013-10-10 05:12:00,
2013-10-10 00:17:00,55.9,43.1,30.02,North,1,0.0,0.0,62,0.00,CLR,,0.00,WeatherDisplay:10.37,2013-10-10 05:17:00,
2013-10-10 00:22:00,55.8,42.9,30.02,North,1,0.0,0.0,62,0.00,CLR,,0.00,WeatherDisplay:10.37,2013-10-10 05:22:00,
2013-10-10 00:27:00,55.8,42.9,30.02,North,1,0.0,0.0,62,0.00,CLR,,0.00,WeatherDisplay:10.37,2013-10-10 05:27:00,
2013-10-10 00:32:00,55.9,43.5,30.02,North,1,0.0,0.0,63,0.00,CLR,,0.00,WeatherDisplay:10.37,2013-10-10 05:32:00,
2013-10-10 00:37:00,56.1,43.7,30.02,North,1,0.0,0.0,63,0.00,CLR,,0.00,WeatherDisplay:10.37,2013-10-10 05:37:00,
2013-10-10 00:42:00,56.1,43.7,30.02,North,1,0.0,0.0,63,0.00,CLR,,0.00,WeatherDisplay:10.37,2013-10-10 05:42:00,
2013-10-10 00:47:00,56.1,43.7,30.02,North,1,0.0,0.0,63,0.00,CLR,,0.00,WeatherDisplay:10.37,2013-10-10 05:47:00,
2013-10-10 00:57:00,56.1,43.3,30.02,North,1,0.0,0.0,62,0.00,CLR,,0.00,WeatherDisplay:10.37,2013-10-10 05:57:00,
2013-10-10 01:02:00,56.1,43.3,30.02,North,1,0.0,0.0,62,0.00,CLR,,0.00,WeatherDisplay:10.37,2013-10-10 06:02:00,
2013-10-10 01:07:00,55.8,43.3,30.02,North,1,0.0,0.0,63,0.00,CLR,,0.00,WeatherDisplay:10.37,2013-10-10 06:07:00,
2013-10-10 01:12:00,55.8,43.3,30.02,North,1,0.0,0.0,63,0.00,CLR,,0.00,WeatherDisplay:10.37,2013-10-10 06:12:00,
2013-10-10 01:17:00,55.6,42.8,30.02,North,1,0.0,0.0,62,0.00,CLR,,0.00,WeatherDisplay:10.37,2013-10-10 06:17:00,
2013-10-10 01:22:00,55.6,42.8,30.02,North,1,0.0,0.0,62,0.00,CLR,,0.00,WeatherDisplay:10.37,2013-10-10 06:22:00,
2013-10-10 01:27:00,55.4,42.6,30.02,North,1,0.0,0.0,62,0.00,CLR,,0.00,WeatherDisplay:10.37,2013-10-10 06:27:00,
2013-10-10 01:32:00,55.4,43.0,30.02,North,1,0.0,0.0,63,0.00,CLR,,0.00,WeatherDisplay:10.37,2013-10-10 06:32:00,
2013-10-10 01:37:00,55.2,42.8,30.02,North,1,0.0,0.0,63,0.00,CLR,,0.00,WeatherDisplay:10.37,2013-10-10 06:37:00,
2013-10-10 01:42:00,55.0,42.7,30.02,North,1,0.0,0.0,63,0.00,CLR,,0.00,WeatherDisplay:10.37,2013-10-10 06:42:00,
2013-10-10 01:47:00,54.9,42.5,30.02,North,1,0.0,0.0,63,0.00,CLR,,0.00,WeatherDisplay:10.37,2013-10-10 06:47:00,
2013-10-10 01:52:00,54.9,42.9,30.02,North,1,0.0,0.0,64,0.00,CLR,,0.00,WeatherDisplay:10.37,2013-10-10 06:52:00,
2013-10-10 01:57:00,54.7,42.7,30.02,North,1,0.0,0.0,64,0.00,CLR,,0.00,WeatherDisplay:10.37,2013-10-10 06:57:00,
2013-10-10 02:02:00,54.7,43.1,30.02,North,1,0.0,0.0,65,0.00,CLR,,0.00,WeatherDisplay:10.37,2013-10-10 07:02:00,
2013-10-10 02:07:00,54.7,43.1,30.02,North,1,0.0,0.0,65,0.00,CLR,,0.00,WeatherDisplay:10.37,2013-10-10 07:07:00,
2013-10-10 02:12:00,54.7,43.1,30.02,North,1,0.0,0.0,65,0.00,CLR,,0.00,WeatherDisplay:10.37,2013-10-10 07:12:00,
2013-10-10 02:17:00,54.7,43.5,30.03,North,1,0.0,0.0,66,0.00,CLR,,0.00,WeatherDisplay:10.37,2013-10-10 07:17:00,
2013-10-10 02:22:00,54.7,43.5,30.02,North,1,0.0,0.0,66,0.00,CLR,,0.00,WeatherDisplay:10.37,2013-10-10 07:22:00,
2013-10-10 02:27:00,54.7,43.5,30.02,North,1,0.0,0.0,66,0.00,CLR,,0.00,WeatherDisplay:10.37,2013-10-10 07:27:00,
2013-10-10 02:32:00,54.7,43.5,30.03,North,1,0.0,0.0,66,0.00,CLR,,0.00,WeatherDisplay:10.37,2013-10-10 07:32:00,
2013-10-10 02:37:00,54.7,43.5,30.03,North,1,0.0,0.0,66,0.00,CLR,,0.00,WeatherDisplay:10.37,2013-10-10 07:37:00,
2013-10-10 02:42:00,54.7,43.5,30.02,North,1,0.0,0.0,66,0.00,CLR,,0.00,WeatherDisplay:10.37,2013-10-10 07:42:00,
2013-10-10 02:47:00,54.7,43.9,30.02,North,1,0.0,0.0,67,0.00,CLR,,0.00,WeatherDisplay:10.37,2013-10-10 07:47:00,
2013-10-10 02:52:00,54.7,43.9,30.03,North,1,0.0,0.0,67,0.00,CLR,,0.00,WeatherDisplay:10.37,2013-10-10 07:52:00,
2013-10-10 02:57:00,54.7,43.9,30.02,North,1,0.0,0.0,67,0.00,CLR,,0.00,WeatherDisplay:10.37,2013-10-10 07:57:00,
2013-10-10 03:02:00,54.7,43.9,30.02,North,1,0.0,0.0,67,0.00,CLR,,0.00,WeatherDisplay:10.37,2013-10-10 08:02:00,
2013-10-10 03:07:00,54.5,43.8,30.02,North,1,0.0,0.0,67,0.00,CLR,,0.00,WeatherDisplay:10.37,2013-10-10 08:07:00,
2013-10-10 03:12:00,54.5,43.8,30.02,North,1,0.0,0.0,67,0.00,CLR,,0.00,WeatherDisplay:10.37,2013-10-10 08:12:00,
2013-10-10 03:17:00,54.3,43.6,30.02,North,1,0.0,0.0,67,0.00,CLR,,0.00,WeatherDisplay:10.37,2013-10-10 08:17:00,
2013-10-10 03:22:00,54.3,44.0,30.02,North,1,0.0,0.0,68,0.00,CLR,,0.00,WeatherDisplay:10.37,2013-10-10 08:22:00,
2013-10-10 03:27:00,54.3,44.0,30.02,North,1,0.0,0.0,68,0.00,CLR,,0.00,WeatherDisplay:10.37,2013-10-10 08:27:00,
2013-10-10 03:32:00,54.3,44.0,30.02,North,1,0.0,0.0,68,0.00,CLR,,0.00,WeatherDisplay:10.37,2013-10-10 08:32:00,
2013-10-10 03:37:00,54.0,43.6,30.02,North,1,0.0,0.0,68,0.00,CLR,,0.00,WeatherDisplay:10.37,2013-10-10 08:37:00,
2013-10-10 03:42:00,54.0,43.6,30.01,North,1,0.0,0.0,68,0.00,CLR,,0.00,WeatherDisplay:10.37,2013-10-10 08:42:00,
2013-10-10 03:47:00,54.0,44.0,30.01,North,1,0.0,0.0,69,0.00,CLR,,0.00,WeatherDisplay:10.37,2013-10-10 08:47:00,
2013-10-10 03:52:00,53.8,43.8,30.01,North,1,0.0,0.0,69,0.00,CLR,,0.00,WeatherDisplay:10.37,2013-10-10 08:52:00,
2013-10-10 03:57:00,53.6,43.7,30.01,North,1,0.0,0.0,69,0.00,CLR,,0.00,WeatherDisplay:10.37,2013-10-10 08:57:00,
2013-10-10 04:02:00,53.2,43.3,30.01,North,1,0.0,0.0,69,0.00,CLR,,0.00,WeatherDisplay:10.37,2013-10-10 09:02:00,
2013-10-10 04:07:00,53.1,43.2,30.01,North,1,0.0,0.0,69,0.00,CLR,,0.00,WeatherDisplay:10.37,2013-10-10 09:07:00,
2013-10-10 04:12:00,53.1,43.2,30.01,North,1,0.0,0.0,69,0.00,CLR,,0.00,WeatherDisplay:10.37,2013-10-10 09:12:00,
2013-10-10 04:17:00,52.9,43.4,30.01,North,1,0.0,0.0,70,0.00,CLR,,0.00,WeatherDisplay:10.37,2013-10-10 09:17:00,
2013-10-10 04:22:00,52.7,43.2,30.01,North,1,0.0,0.0,70,0.00,CLR,,0.00,WeatherDisplay:10.37,2013-10-10 09:22:00,
2013-10-10 04:27:00,52.5,43.0,30.01,North,1,0.0,0.0,70,0.00,CLR,,0.00,WeatherDisplay:10.37,2013-10-10 09:27:00,
2013-10-10 04:32:00,52.5,43.0,30.01,North,1,0.0,0.0,70,0.00,CLR,,0.00,WeatherDisplay:10.37,2013-10-10 09:32:00,
2013-10-10 04:37:00,52.2,43.0,30.01,North,1,0.0,0.0,71,0.00,CLR,,0.00,WeatherDisplay:10.37,2013-10-10 09:37:00,
2013-10-10 04:42:00,52.2,43.0,30.01,North,1,0.0,0.0,71,0.00,CLR,,0.00,WeatherDisplay:10.37,2013-10-10 09:42:00,
2013-10-10 04:47:00,52.2,43.0,30.02,North,1,0.0,0.0,71,0.00,CLR,,0.00,WeatherDisplay:10.37,2013-10-10 09:47:00,
2013-10-10 04:52:00,52.2,43.0,30.02,North,1,0.0,0.0,71,0.00,CLR,,0.00,WeatherDisplay:10.37,2013-10-10 09:52:00,
2013-10-10 04:57:00,52.2,43.0,30.02,North,1,0.0,0.0,71,0.00,CLR,,0.00,WeatherDisplay:10.37,2013-10-10 09:57:00,
2013-10-10 05:02:00,52.2,43.4,30.02,North,1,0.0,0.0,72,0.00,CLR,,0.00,WeatherDisplay:10.37,2013-10-10 10:02:00,
2013-10-10 05:07:00,52.2,43.4,30.02,North,1,0.0,0.0,72,0.00,CLR,,0.00,WeatherDisplay:10.37,2013-10-10 10:07:00,
2013-10-10 05:12:00,52.2,43.4,30.02,North,1,0.0,0.0,72,0.00,CLR,,0.00,WeatherDisplay:10.37,2013-10-10 10:12:00,
2013-10-10 05:17:00,52.0,43.2,30.02,North,1,0.0,0.0,72,0.00,CLR,,0.00,WeatherDisplay:10.37,2013-10-10 10:17:00,
2013-10-10 05:22:00,52.0,43.2,30.02,North,1,0.0,0.0,72,0.00,CLR,,0.00,WeatherDisplay:10.37,2013-10-10 10:22:00,
2013-10-10 05:27:00,52.0,43.2,30.03,North,1,0.0,0.0,72,0.00,CLR,,0.00,WeatherDisplay:10.37,2013-10-10 10:27:00,
2013-10-10 05:32:00,52.0,43.2,30.03,North,1,0.0,0.0,72,0.00,CLR,,0.00,WeatherDisplay:10.37,2013-10-10 10:32:00,
2013-10-10 05:37:00,52.0,43.6,30.03,North,1,0.0,0.0,73,0.00,CLR,,0.00,WeatherDisplay:10.37,2013-10-10 10:37:00,
2013-10-10 05:42:00,52.0,43.6,30.03,North,1,0.0,0.0,73,0.00,CLR,,0.00,WeatherDisplay:10.37,2013-10-10 10:42:00,
2013-10-10 05:47:00,52.0,43.6,30.03,North,1,0.0,0.0,73,0.00,CLR,,0.00,WeatherDisplay:10.37,2013-10-10 10:47:00,
2013-10-10 05:52:00,52.0,43.6,30.03,North,1,0.0,0.0,73,0.00,CLR,,0.00,WeatherDisplay:10.37,2013-10-10 10:52:00,
2013-10-10 05:57:00,52.0,43.6,30.03,North,1,0.0,0.0,73,0.00,CLR,,0.00,WeatherDisplay:10.37,2013-10-10 10:57:00,
2013-10-10 06:02:00,52.0,43.6,30.03,North,1,0.0,0.0,73,0.00,CLR,,0.00,WeatherDisplay:10.37,2013-10-10 11:02:00,
2013-10-10 06:07:00,52.0,43.6,30.03,North,1,0.0,0.0,73,0.00,CLR,,0.00,WeatherDisplay:10.37,2013-10-10 11:07:00,
2013-10-10 06:12:00,52.0,43.6,30.03,North,1,0.0,0.0,73,0.00,CLR,,0.00,WeatherDisplay:10.37,2013-10-10 11:12:00,
2013-10-10 06:17:00,52.0,43.6,30.03,North,1,0.0,0.0,73,0.00,CLR,,0.00,WeatherDisplay:10.37,2013-10-10 11:17:00,
2013-10-10 06:22:00,51.6,43.2,30.03,North,1,0.0,0.0,73,0.00,CLR,,0.00,WeatherDisplay:10.37,2013-10-10 11:22:00,
2013-10-10 06:27:00,51.6,43.2,30.03,North,1,0.0,0.0,73,0.00,CLR,,0.00,WeatherDisplay:10.37,2013-10-10 11:27:00,
2013-10-10 06:32:00,51.6,43.2,30.03,North,1,0.0,0.0,73,0.00,CLR,,0.00,WeatherDisplay:10.37,2013-10-10 11:32:00,
2013-10-10 06:37:00,51.6,43.6,30.03,North,1,0.0,0.0,74,0.00,CLR,,0.00,WeatherDisplay:10.37,2013-10-10 11:37:00,
2013-10-10 06:42:00,51.4,43.4,30.03,North,1,0.0,0.0,74,0.00,CLR,,0.00,WeatherDisplay:10.37,2013-10-10 11:42:00,
2013-10-10 06:47:00,51.4,43.4,30.04,North,1,0.0,0.0,74,0.00,CLR,,0.00,WeatherDisplay:10.37,2013-10-10 11:47:00,
2013-10-10 06:52:00,51.3,43.3,30.03,North,1,0.0,0.0,74,0.00,CLR,,0.00,WeatherDisplay:10.37,2013-10-10 11:52:00,
2013-10-10 06:57:00,51.3,43.3,30.04,North,1,0.0,0.0,74,0.00,CLR,,0.00,WeatherDisplay:10.37,2013-10-10 11:57:00,
2013-10-10 07:02:00,51.3,43.3,30.03,North,1,0.0,0.0,74,0.00,CLR,,0.00,WeatherDisplay:10.37,2013-10-10 12:02:00,
2013-10-10 07:07:00,51.1,43.4,30.03,North,1,0.0,0.0,75,0.00,CLR,,0.00,WeatherDisplay:10.37,2013-10-10 12:07:00,
2013-10-10 07:12:00,50.9,43.3,30.03,North,1,0.0,0.0,75,0.00,CLR,,0.00,WeatherDisplay:10.37,2013-10-10 12:12:00,
2013-10-10 07:17:00,50.9,43.3,30.04,North,1,0.0,0.0,75,0.00,CLR,,0.00,WeatherDisplay:10.37,2013-10-10 12:17:00,
2013-10-10 07:22:00,50.7,43.1,30.04,North,1,0.0,0.0,75,0.00,CLR,,0.00,WeatherDisplay:10.37,2013-10-10 12:22:00,
2013-10-10 07:27:00,50.7,43.1,30.03,North,1,0.0,0.0,75,0.00,CLR,,0.00,WeatherDisplay:10.37,2013-10-10 12:27:00,
2013-10-10 07:32:00,50.7,43.1,30.03,North,1,0.0,0.0,75,0.00,CLR,,0.00,WeatherDisplay:10.37,2013-10-10 12:32:00,
2013-10-10 07:37:00,50.5,42.9,30.03,North,1,0.0,0.0,75,0.00,CLR,,0.00,WeatherDisplay:10.37,2013-10-10 12:37:00,
2013-10-10 07:42:00,50.4,43.1,30.03,North,1,0.0,0.0,76,0.00,CLR,,0.00,WeatherDisplay:10.37,2013-10-10 12:42:00,
2013-10-10 07:47:00,50.4,43.1,30.03,North,1,0.0,0.0,76,0.00,CLR,,0.00,WeatherDisplay:10.37,2013-10-10 12:47:00,
2013-10-10 07:52:00,50.4,43.1,30.03,North,1,0.0,0.0,76,0.00,CLR,,0.00,WeatherDisplay:10.37,2013-10-10 12:52:00,
2013-10-10 07:57:00,50.4,43.1,30.03,North,1,0.0,0.0,76,0.00,CLR,,0.00,WeatherDisplay:10.37,2013-10-10 12:57:00,
2013-10-10 08:02:00,50.5,43.6,30.03,North,1,0.0,0.0,77,0.00,CLR,,0.00,WeatherDisplay:10.37,2013-10-10 13:02:00,
2013-10-10 08:07:00,50.7,43.8,30.03,North,1,0.0,0.0,77,0.00,CLR,,0.00,WeatherDisplay:10.37,2013-10-10 13:07:00,
2013-10-10 08:12:00,50.7,43.8,30.03,North,1,0.0,0.0,77,0.00,CLR,,0.00,WeatherDisplay:10.37,2013-10-10 13:12:00,
2013-10-10 08:17:00,51.3,44.3,30.03,North,1,0.0,0.0,77,0.00,CLR,,0.00,WeatherDisplay:10.37,2013-10-10 13:17:00,
2013-10-10 08:22:00,51.3,44.3,30.03,North,1,0.0,0.0,77,0.00,CLR,,0.00,WeatherDisplay:10.37,2013-10-10 13:22:00,
2013-10-10 08:27:00,52.0,45.0,30.03,North,1,0.0,0.0,77,0.00,CLR,,0.00,WeatherDisplay:10.37,2013-10-10 13:27:00,
2013-10-10 08:32:00,52.5,45.5,30.04,North,1,0.0,0.0,77,0.00,CLR,,0.00,WeatherDisplay:10.37,2013-10-10 13:32:00,
2013-10-10 08:37:00,53.1,46.0,30.04,North,1,0.0,0.0,77,0.00,CLR,,0.00,WeatherDisplay:10.37,2013-10-10 13:37:00,
2013-10-10 08:42:00,53.8,46.4,30.04,North,1,0.0,0.0,76,0.00,CLR,,0.00,WeatherDisplay:10.37,2013-10-10 13:42:00,
2013-10-10 08:47:00,54.9,47.1,30.04,North,1,0.0,0.0,75,0.00,CLR,,0.00,WeatherDisplay:10.37,2013-10-10 13:47:00,
2013-10-10 08:52:00,55.8,48.0,30.04,North,1,0.0,0.0,75,0.00,CLR,,0.00,WeatherDisplay:10.37,2013-10-10 13:52:00,
2013-10-10 08:57:00,57.2,49.0,30.04,North,1,0.0,0.0,74,0.00,CLR,,0.00,WeatherDisplay:10.37,2013-10-10 13:57:00,
2013-10-10 09:02:00,57.6,49.0,30.04,North,1,0.0,0.0,73,0.00,CLR,,0.00,WeatherDisplay:10.37,2013-10-10 14:02:00,
2013-10-10 09:07:00,59.4,50.0,30.04,North,1,0.0,0.0,71,0.00,CLR,,0.00,WeatherDisplay:10.37,2013-10-10 14:07:00,
2013-10-10 09:12:00,60.8,50.6,30.04,North,1,0.0,0.0,69,0.00,CLR,,0.00,WeatherDisplay:10.37,2013-10-10 14:12:00,
2013-10-10 09:17:00,61.5,50.9,30.04,North,1,0.0,0.0,68,0.00,CLR,,0.00,WeatherDisplay:10.37,2013-10-10 14:17:00,
2013-10-10 09:22:00,62.2,51.1,30.05,North,1,0.0,0.0,67,0.00,CLR,,0.00,WeatherDisplay:10.37,2013-10-10 14:22:00,
2013-10-10 09:27:00,63.1,51.6,30.05,North,1,0.0,0.0,66,0.00,CLR,,0.00,WeatherDisplay:10.37,2013-10-10 14:27:00,
2013-10-10 09:32:00,64.0,51.6,30.05,North,1,0.0,0.0,64,0.00,CLR,,0.00,WeatherDisplay:10.37,2013-10-10 14:32:00,
2013-10-10 09:37:00,64.8,51.9,30.04,North,1,0.0,0.0,63,0.00,CLR,,0.00,WeatherDisplay:10.37,2013-10-10 14:37:00,
2013-10-10 09:42:00,65.1,51.8,30.05,North,1,0.0,0.0,62,0.00,CLR,,0.00,WeatherDisplay:10.37,2013-10-10 14:42:00,
2013-10-10 09:47:00,65.1,51.3,30.05,North,1,0.0,0.0,61,0.00,CLR,,0.00,WeatherDisplay:10.37,2013-10-10 14:47:00,
2013-10-10 09:52:00,65.7,52.3,30.04,North,1,0.0,0.0,62,0.00,CLR,,0.00,WeatherDisplay:10.37,2013-10-10 14:52:00,
2013-10-10 09:57:00,66.0,52.2,30.04,North,1,0.0,0.0,61,0.00,CLR,,0.00,WeatherDisplay:10.37,2013-10-10 14:57:00,
2013-10-10 10:02:00,66.4,52.1,30.05,North,1,0.0,0.0,60,0.00,CLR,,0.00,WeatherDisplay:10.37,2013-10-10 15:02:00,
2013-10-10 10:07:00,66.6,52.2,30.05,North,1,0.0,0.0,60,0.00,CLR,,0.00,WeatherDisplay:10.37,2013-10-10 15:07:00,
2013-10-10 10:12:00,67.3,52.5,30.04,North,1,0.0,0.0,59,0.00,CLR,,0.00,WeatherDisplay:10.37,2013-10-10 15:12:00,
2013-10-10 10:17:00,67.8,53.0,30.04,North,1,0.0,0.0,59,0.00,CLR,,0.00,WeatherDisplay:10.37,2013-10-10 15:17:00,
2013-10-10 10:22:00,68.4,53.0,30.04,North,1,0.0,0.0,58,0.00,CLR,,0.00,WeatherDisplay:10.37,2013-10-10 15:22:00,
2013-10-10 10:27:00,68.4,53.0,30.04,North,1,0.0,0.0,58,0.00,CLR,,0.00,WeatherDisplay:10.37,2013-10-10 15:27:00,
2013-10-10 10:32:00,69.1,53.2,30.04,North,1,0.0,0.0,57,0.00,CLR,,0.00,WeatherDisplay:10.37,2013-10-10 15:32:00,
2013-10-10 10:37:00,69.1,53.2,30.04,North,1,0.0,0.0,57,0.00,CLR,,0.00,WeatherDisplay:10.37,2013-10-10 15:37:00,
2013-10-10 10:42:00,69.4,53.5,30.04,North,1,0.0,0.0,57,0.00,CLR,,0.00,WeatherDisplay:10.37,2013-10-10 15:42:00,
2013-10-10 10:47:00,70.0,53.6,30.04,North,1,0.0,0.0,56,0.00,CLR,,0.00,WeatherDisplay:10.37,2013-10-10 15:47:00,
2013-10-10 10:52:00,70.5,54.1,30.04,North,1,0.0,0.0,56,0.00,CLR,,0.00,WeatherDisplay:10.37,2013-10-10 15:52:00,
2013-10-10 10:57:00,71.1,54.6,30.04,North,1,0.0,0.0,56,0.00,CLR,,0.00,WeatherDisplay:10.37,2013-10-10 15:57:00,
2013-10-10 11:02:00,71.4,54.4,30.04,North,1,0.0,0.0,55,0.00,CLR,,0.00,WeatherDisplay:10.37,2013-10-10 16:02:00,
2013-10-10 11:07:00,72.0,54.9,30.03,North,1,0.0,0.0,55,0.00,CLR,,0.00,WeatherDisplay:10.37,2013-10-10 16:07:00,
2013-10-10 11:12:00,72.0,54.9,30.03,North,1,0.0,0.0,55,0.00,CLR,,0.00,WeatherDisplay:10.37,2013-10-10 16:12:00,
2013-10-10 11:17:00,72.9,55.2,30.04,North,1,0.0,0.0,54,0.00,CLR,,0.00,WeatherDisplay:10.37,2013-10-10 16:17:00,
2013-10-10 11:22:00,73.4,55.2,30.03,North,1,0.0,0.0,53,0.00,CLR,,0.00,WeatherDisplay:10.37,2013-10-10 16:22:00,
2013-10-10 11:27:00,74.1,55.4,30.03,North,1,0.0,0.0,52,0.00,CLR,,0.00,WeatherDisplay:10.37,2013-10-10 16:27:00,
2013-10-10 11:32:00,74.3,55.5,30.02,North,1,0.0,0.0,52,0.00,CLR,,0.00,WeatherDisplay:10.37,2013-10-10 16:32:00,
2013-10-10 11:37:00,74.7,56.4,30.03,North,1,0.0,0.0,53,0.00,CLR,,0.00,WeatherDisplay:10.37,2013-10-10 16:37:00,
2013-10-10 11:42:00,75.7,56.9,30.02,North,1,0.0,0.0,52,0.00,CLR,,0.00,WeatherDisplay:10.37,2013-10-10 16:42:00,
2013-10-10 11:47:00,75.9,56.5,30.02,North,1,0.0,0.0,51,0.00,CLR,,0.00,WeatherDisplay:10.37,2013-10-10 16:47:00,
2013-10-10 11:52:00,76.3,56.8,30.02,North,1,0.0,0.0,51,0.00,CLR,,0.00,WeatherDisplay:10.37,2013-10-10 16:52:00,
2013-10-10 11:57:00,76.5,56.4,30.02,North,1,0.0,0.0,50,0.00,CLR,,0.00,WeatherDisplay:10.37,2013-10-10 16:57:00,
2013-10-10 12:02:00,76.6,56.6,30.02,North,1,0.0,0.0,50,0.00,CLR,,0.00,WeatherDisplay:10.37,2013-10-10 17:02:00,
2013-10-10 12:07:00,76.8,56.2,30.02,North,1,0.0,0.0,49,0.00,CLR,,0.00,WeatherDisplay:10.37,2013-10-10 17:07:00,
2013-10-10 12:12:00,77.2,56.5,30.01,North,1,0.0,0.0,49,0.00,CLR,,0.00,WeatherDisplay:10.37,2013-10-10 17:12:00,
2013-10-10 12:17:00,77.2,56.5,30.01,North,1,0.0,0.0,49,0.00,CLR,,0.00,WeatherDisplay:10.37,2013-10-10 17:17:00,
2013-10-10 12:22:00,77.2,56.0,30.01,North,1,0.0,0.0,48,0.00,CLR,,0.00,WeatherDisplay:10.37,2013-10-10 17:22:00,
2013-10-10 12:27:00,77.4,56.1,30.01,North,1,0.0,0.0,48,0.00,CLR,,0.00,WeatherDisplay:10.37,2013-10-10 17:27:00,
2013-10-10 12:32:00,77.4,56.1,30.01,North,1,0.0,0.0,48,0.00,CLR,,0.00,WeatherDisplay:10.37,2013-10-10 17:32:00,
2013-10-10 12:37:00,77.9,56.6,30.01,North,1,0.0,0.0,48,0.00,CLR,,0.00,WeatherDisplay:10.37,2013-10-10 17:37:00,
2013-10-10 12:42:00,77.9,56.6,30.01,North,1,0.0,0.0,48,0.00,CLR,,0.00,WeatherDisplay:10.37,2013-10-10 17:42:00,
2013-10-10 12:47:00,78.1,55.6,30.00,North,1,0.0,0.0,46,0.00,CLR,,0.00,WeatherDisplay:10.37,2013-10-10 17:47:00,
2013-10-10 12:52:00,78.3,56.4,30.00,North,1,0.0,0.0,47,0.00,CLR,,0.00,WeatherDisplay:10.37,2013-10-10 17:52:00,
2013-10-10 12:57:00,78.1,56.2,30.00,North,1,0.0,0.0,47,0.00,CLR,,0.00,WeatherDisplay:10.37,2013-10-10 17:57:00,
2013-10-10 13:02:00,78.1,56.2,29.99,North,1,0.0,0.0,47,0.00,CLR,,0.00,WeatherDisplay:10.37,2013-10-10 18:02:00,
2013-10-10 13:07:00,77.9,56.0,29.99,North,1,0.0,0.0,47,0.00,CLR,,0.00,WeatherDisplay:10.37,2013-10-10 18:07:00,
2013-10-10 13:12:00,78.1,56.2,29.99,North,1,0.0,0.0,47,0.00,CLR,,0.00,WeatherDisplay:10.37,2013-10-10 18:12:00,
2013-10-10 13:17:00,78.1,56.2,29.99,North,1,0.0,0.0,47,0.00,CLR,,0.00,WeatherDisplay:10.37,2013-10-10 18:17:00,
2013-10-10 13:22:00,78.3,56.4,29.99,North,1,0.0,0.0,47,0.00,CLR,,0.00,WeatherDisplay:10.37,2013-10-10 18:22:00,
2013-10-10 13:27:00,78.6,56.1,29.98,North,1,0.0,0.0,46,0.00,CLR,,0.00,WeatherDisplay:10.37,2013-10-10 18:27:00,
2013-10-10 13:32:00,78.6,56.1,29.98,North,1,0.0,0.0,46,0.00,CLR,,0.00,WeatherDisplay:10.37,2013-10-10 18:32:00,
2013-10-10 13:37:00,78.6,56.1,29.98,North,1,0.0,0.0,46,0.00,CLR,,0.00,WeatherDisplay:10.37,2013-10-10 18:37:00,
2013-10-10 13:42:00,78.8,56.3,29.97,North,1,0.0,0.0,46,0.00,CLR,,0.00,WeatherDisplay:10.37,2013-10-10 18:42:00,
2013-10-10 13:47:00,79.2,56.6,29.97,North,1,0.0,0.0,46,0.00,CLR,,0.00,WeatherDisplay:10.37,2013-10-10 18:47:00,
2013-10-10 13:52:00,79.2,56.0,29.97,North,1,0.0,0.0,45,0.00,CLR,,0.00,WeatherDisplay:10.37,2013-10-10 18:52:00,
2013-10-10 13:57:00,79.2,56.0,29.97,North,1,0.0,0.0,45,0.00,CLR,,0.00,WeatherDisplay:10.37,2013-10-10 18:57:00,
2013-10-10 14:02:00,79.2,56.0,29.96,North,1,0.0,0.0,45,0.00,CLR,,0.00,WeatherDisplay:10.37,2013-10-10 19:02:00,
2013-10-10 14:07:00,79.2,55.4,29.96,North,1,0.0,0.0,44,0.00,CLR,,0.00,WeatherDisplay:10.37,2013-10-10 19:07:00,
2013-10-10 14:12:00,79.2,55.4,29.96,North,1,0.0,0.0,44,0.00,CLR,,0.00,WeatherDisplay:10.37,2013-10-10 19:12:00,
2013-10-10 14:17:00,79.0,55.2,29.96,North,1,0.0,0.0,44,0.00,CLR,,0.00,WeatherDisplay:10.37,2013-10-10 19:17:00,
2013-10-10 14:22:00,78.6,54.9,29.95,North,1,0.0,0.0,44,0.00,CLR,,0.00,WeatherDisplay:10.37,2013-10-10 19:22:00,
2013-10-10 14:27:00,78.6,54.9,29.95,North,1,0.0,0.0,44,0.00,CLR,,0.00,WeatherDisplay:10.37,2013-10-10 19:27:00,
2013-10-10 14:32:00,78.6,54.9,29.95,North,1,0.0,0.0,44,0.00,CLR,,0.00,WeatherDisplay:10.37,2013-10-10 19:32:00,
2013-10-10 14:37:00,79.2,55.4,29.95,North,1,0.0,0.0,44,0.00,CLR,,0.00,WeatherDisplay:10.37,2013-10-10 19:37:00,
2013-10-10 14:42:00,79.0,55.2,29.95,North,1,0.0,0.0,44,0.00,CLR,,0.00,WeatherDisplay:10.37,2013-10-10 19:42:00,
2013-10-10 14:47:00,79.0,55.2,29.94,North,1,0.0,0.0,44,0.00,CLR,,0.00,WeatherDisplay:10.37,2013-10-10 19:47:00,
2013-10-10 14:52:00,79.0,54.6,29.94,North,1,0.0,0.0,43,0.00,CLR,,0.00,WeatherDisplay:10.37,2013-10-10 19:52:00,
2013-10-10 14:57:00,78.6,54.2,29.94,North,1,0.0,0.0,43,0.00,CLR,,0.00,WeatherDisplay:10.37,2013-10-10 19:57:00,
2013-10-10 15:02:00,78.6,54.2,29.94,North,1,0.0,0.0,43,0.00,CLR,,0.00,WeatherDisplay:10.37,2013-10-10 20:02:00,
2013-10-10 15:07:00,78.4,54.1,29.94,North,1,0.0,0.0,43,0.00,CLR,,0.00,WeatherDisplay:10.37,2013-10-10 20:07:00,
2013-10-10 15:12:00,78.3,53.9,29.94,North,1,0.0,0.0,43,0.00,CLR,,0.00,WeatherDisplay:10.37,2013-10-10 20:12:00,
2013-10-10 15:17:00,78.3,53.9,29.93,North,1,0.0,0.0,43,0.00,CLR,,0.00,WeatherDisplay:10.37,2013-10-10 20:17:00,
2013-10-10 15:22:00,78.3,54.6,29.93,North,1,0.0,0.0,44,0.00,CLR,,0.00,WeatherDisplay:10.37,2013-10-10 20:22:00,
2013-10-10 15:27:00,78.3,53.9,29.93,North,1,0.0,0.0,43,0.00,CLR,,0.00,WeatherDisplay:10.37,2013-10-10 20:27:00,
2013-10-10 15:31:00,77.7,53.4,29.93,North,1,0.0,0.0,43,0.00,CLR,,0.00,WeatherDisplay:10.37,2013-10-10 20:31:00,
2013-10-10 15:36:00,77.7,54.1,29.93,North,1,0.0,0.0,44,0.00,CLR,,0.00,WeatherDisplay:10.37,2013-10-10 20:36:00,
2013-10-10 15:41:00,77.5,53.3,29.93,North,1,0.0,0.0,43,0.00,CLR,,0.00,WeatherDisplay:10.37,2013-10-10 20:41:00,
2013-10-10 15:46:00,77.7,54.1,29.93,North,1,0.0,0.0,44,0.00,CLR,,0.00,WeatherDisplay:10.37,2013-10-10 20:46:00,
2013-10-10 15:51:00,77.7,54.1,29.93,North,1,0.0,0.0,44,0.00,CLR,,0.00,WeatherDisplay:10.37,2013-10-10 20:51:00,
2013-10-10 15:56:00,77.7,54.1,29.93,North,1,0.0,0.0,44,0.00,CLR,,0.00,WeatherDisplay:10.37,2013-10-10 20:56:00,
2013-10-10 16:01:00,77.4,53.7,29.92,North,1,0.0,0.0,44,0.00,CLR,,0.00,WeatherDisplay:10.37,2013-10-10 21:01:00,
2013-10-10 16:06:00,77.4,53.7,29.92,North,1,0.0,0.0,44,0.00,CLR,,0.00,WeatherDisplay:10.37,2013-10-10 21:06:00,
2013-10-10 16:11:00,77.4,53.7,29.92,North,1,0.0,0.0,44,0.00,CLR,,0.00,WeatherDisplay:10.37,2013-10-10 21:11:00,
2013-10-10 16:16:00,77.4,53.1,29.92,North,1,0.0,0.0,43,0.00,CLR,,0.00,WeatherDisplay:10.37,2013-10-10 21:16:00,
2013-10-10 16:21:00,77.4,53.1,29.92,North,1,0.0,0.0,43,0.00,CLR,,0.00,WeatherDisplay:10.37,2013-10-10 21:21:00,
2013-10-10 16:26:00,77.4,53.1,29.92,North,1,0.0,0.0,43,0.00,CLR,,0.00,WeatherDisplay:10.37,2013-10-10 21:26:00,
2013-10-10 16:31:00,77.4,53.1,29.91,North,1,0.0,0.0,43,0.00,CLR,,0.00,WeatherDisplay:10.37,2013-10-10 21:31:00,
2013-10-10 16:36:00,77.4,53.1,29.91,North,1,0.0,0.0,43,0.00,CLR,,0.00,WeatherDisplay:10.37,2013-10-10 21:36:00,
2013-10-10 16:41:00,77.4,53.1,29.91,North,1,0.0,0.0,43,0.00,CLR,,0.00,WeatherDisplay:10.37,2013-10-10 21:41:00,
2013-10-10 16:46:00,77.2,52.9,29.91,North,1,0.0,0.0,43,0.00,CLR,,0.00,WeatherDisplay:10.37,2013-10-10 21:46:00,
2013-10-10 16:51:00,77.2,52.9,29.91,North,1,0.0,0.0,43,0.00,CLR,,0.00,WeatherDisplay:10.37,2013-10-10 21:51:00,
2013-10-10 16:56:00,77.0,52.8,29.91,North,1,0.0,0.0,43,0.00,CLR,,0.00,WeatherDisplay:10.37,2013-10-10 21:56:00,
2013-10-10 17:01:00,76.8,53.3,29.91,North,1,0.0,0.0,44,0.00,CLR,,0.00,WeatherDisplay:10.37,2013-10-10 22:01:00,
2013-10-10 17:06:00,76.8,53.3,29.91,North,1,0.0,0.0,44,0.00,CLR,,0.00,WeatherDisplay:10.37,2013-10-10 22:06:00,
2013-10-10 17:11:00,76.5,52.9,29.91,North,1,0.0,0.0,44,0.00,CLR,,0.00,WeatherDisplay:10.37,2013-10-10 22:11:00,
2013-10-10 17:16:00,76.5,52.9,29.90,North,1,0.0,0.0,44,0.00,CLR,,0.00,WeatherDisplay:10.37,2013-10-10 22:16:00,
2013-10-10 17:21:00,76.1,53.2,29.91,North,1,0.0,0.0,45,0.00,CLR,,0.00,WeatherDisplay:10.37,2013-10-10 22:21:00,
2013-10-10 17:26:00,75.9,53.0,29.90,North,1,0.0,0.0,45,0.00,CLR,,0.00,WeatherDisplay:10.37,2013-10-10 22:26:00,
2013-10-10 17:31:00,75.6,52.7,29.90,North,1,0.0,0.0,45,0.00,CLR,,0.00,WeatherDisplay:10.37,2013-10-10 22:31:00,
2013-10-10 17:36:00,75.6,52.7,29.90,North,1,0.0,0.0,45,0.00,CLR,,0.00,WeatherDisplay:10.37,2013-10-10 22:36:00,
2013-10-10 17:41:00,75.4,52.6,29.90,North,1,0.0,0.0,45,0.00,CLR,,0.00,WeatherDisplay:10.37,2013-10-10 22:41:00,
2013-10-10 17:46:00,75.0,52.2,29.90,North,1,0.0,0.0,45,0.00,CLR,,0.00,WeatherDisplay:10.37,2013-10-10 22:46:00,
2013-10-10 17:51:00,74.8,52.1,29.90,North,1,0.0,0.0,45,0.00,CLR,,0.00,WeatherDisplay:10.37,2013-10-10 22:51:00,
2013-10-10 17:56:00,74.7,51.9,29.90,North,1,0.0,0.0,45,0.00,CLR,,0.00,WeatherDisplay:10.37,2013-10-10 22:56:00,
2013-10-10 18:01:00,74.1,52.0,29.90,North,1,0.0,0.0,46,0.00,CLR,,0.00,WeatherDisplay:10.37,2013-10-10 23:01:00,
2013-10-10 18:06:00,73.9,51.8,29.90,North,1,0.0,0.0,46,0.00,CLR,,0.00,WeatherDisplay:10.37,2013-10-10 23:06:00,
2013-10-10 18:11:00,73.8,52.3,29.89,North,1,0.0,0.0,47,0.00,CLR,,0.00,WeatherDisplay:10.37,2013-10-10 23:11:00,
2013-10-10 18:16:00,73.4,51.9,29.89,North,1,0.0,0.0,47,0.00,CLR,,0.00,WeatherDisplay:10.37,2013-10-10 23:16:00,
2013-10-10 18:21:00,73.0,52.2,29.89,North,1,0.0,0.0,48,0.00,CLR,,0.00,WeatherDisplay:10.37,2013-10-10 23:21:00,
2013-10-10 18:26:00,72.7,51.9,29.89,North,1,0.0,0.0,48,0.00,CLR,,0.00,WeatherDisplay:10.37,2013-10-10 23:26:00,
2013-10-10 18:31:00,72.3,52.1,29.89,North,1,0.0,0.0,49,0.00,CLR,,0.00,WeatherDisplay:10.37,2013-10-10 23:31:00,
2013-10-10 18:36:00,72.0,51.8,29.89,North,1,0.0,0.0,49,0.00,CLR,,0.00,WeatherDisplay:10.37,2013-10-10 23:36:00,
2013-10-10 18:41:00,71.6,52.0,29.89,North,1,0.0,0.0,50,0.00,CLR,,0.00,WeatherDisplay:10.37,2013-10-10 23:41:00,
2013-10-10 18:46:00,71.1,51.5,29.89,North,1,0.0,0.0,50,0.00,CLR,,0.00,WeatherDisplay:10.37,2013-10-10 23:46:00,
2013-10-10 18:51:00,70.5,51.0,29.89,North,1,0.0,0.0,50,0.00,CLR,,0.00,WeatherDisplay:10.37,2013-10-10 23:51:00,
2013-10-10 18:56:00,70.2,51.2,29.89,North,1,0.0,0.0,51,0.00,CLR,,0.00,WeatherDisplay:10.37,2013-10-10 23:56:00,
2013-10-10 19:01:00,70.0,51.0,29.89,North,1,0.0,0.0,51,0.00,CLR,,0.00,WeatherDisplay:10.37,2013-10-11 00:01:00,
2013-10-10 19:06:00,69.6,50.7,29.89,North,1,0.0,0.0,51,0.00,CLR,,0.00,WeatherDisplay:10.37,2013-10-11 00:06:00,
2013-10-10 19:11:00,69.6,51.2,29.89,North,1,0.0,0.0,52,0.00,CLR,,0.00,WeatherDisplay:10.37,2013-10-11 00:11:00,
2013-10-10 19:16:00,69.1,50.7,29.89,North,1,0.0,0.0,52,0.00,CLR,,0.00,WeatherDisplay:10.37,2013-10-11 00:16:00,
2013-10-10 19:21:00,68.7,50.9,29.89,North,1,0.0,0.0,53,0.00,CLR,,0.00,WeatherDisplay:10.37,2013-10-11 00:21:00,
2013-10-10 19:26:00,68.7,50.9,29.89,North,1,0.0,0.0,53,0.00,CLR,,0.00,WeatherDisplay:10.37,2013-10-11 00:26:00,
2013-10-10 19:31:00,68.0,50.7,29.89,North,1,0.0,0.0,54,0.00,CLR,,0.00,WeatherDisplay:10.37,2013-10-11 00:31:00,
2013-10-10 19:36:00,67.6,50.4,29.89,North,1,0.0,0.0,54,0.00,CLR,,0.00,WeatherDisplay:10.37,2013-10-11 00:36:00,
2013-10-10 19:41:00,67.5,50.2,29.89,North,1,0.0,0.0,54,0.00,CLR,,0.00,WeatherDisplay:10.37,2013-10-11 00:41:00,
2013-10-10 19:46:00,67.1,50.4,29.89,North,1,0.0,0.0,55,0.00,CLR,,0.00,WeatherDisplay:10.37,2013-10-11 00:46:00,
2013-10-10 19:51:00,66.9,50.2,29.89,North,1,0.0,0.0,55,0.00,CLR,,0.00,WeatherDisplay:10.37,2013-10-11 00:51:00,
2013-10-10 19:56:00,66.9,50.2,29.89,North,1,0.0,0.0,55,0.00,CLR,,0.00,WeatherDisplay:10.37,2013-10-11 00:56:00,
2013-10-10 20:01:00,66.6,50.4,29.89,North,1,0.0,0.0,56,0.00,CLR,,0.00,WeatherDisplay:10.37,2013-10-11 01:01:00,
2013-10-10 20:06:00,66.6,50.4,29.89,North,1,0.0,0.0,56,0.00,CLR,,0.00,WeatherDisplay:10.37,2013-10-11 01:06:00,
2013-10-10 20:11:00,66.4,50.2,29.89,North,1,0.0,0.0,56,0.00,CLR,,0.00,WeatherDisplay:10.37,2013-10-11 01:11:00,
2013-10-10 20:16:00,66.0,50.3,29.89,North,1,0.0,0.0,57,0.00,CLR,,0.00,WeatherDisplay:10.37,2013-10-11 01:16:00,
2013-10-10 20:21:00,65.8,50.2,29.88,North,1,0.0,0.0,57,0.00,CLR,,0.00,WeatherDisplay:10.37,2013-10-11 01:21:00,
2013-10-10 20:26:00,65.7,50.0,29.88,North,1,0.0,0.0,57,0.00,CLR,,0.00,WeatherDisplay:10.37,2013-10-11 01:26:00,
2013-10-10 20:31:00,65.5,50.3,29.88,North,1,0.0,0.0,58,0.00,CLR,,0.00,WeatherDisplay:10.37,2013-10-11 01:31:00,
2013-10-10 20:36:00,65.3,50.1,29.88,North,1,0.0,0.0,58,0.00,CLR,,0.00,WeatherDisplay:10.37,2013-10-11 01:36:00,
2013-10-10 20:41:00,65.1,50.4,29.88,North,1,0.0,0.0,59,0.00,CLR,,0.00,WeatherDisplay:10.37,2013-10-11 01:41:00,
2013-10-10 20:46:00,64.8,50.1,29.88,North,1,0.0,0.0,59,0.00,CLR,,0.00,WeatherDisplay:10.37,2013-10-11 01:46:00,
2013-10-10 20:51:00,64.8,50.5,29.88,North,1,0.0,0.0,60,0.00,CLR,,0.00,WeatherDisplay:10.37,2013-10-11 01:51:00,
2013-10-10 20:56:00,64.6,50.4,29.88,North,1,0.0,0.0,60,0.00,CLR,,0.00,WeatherDisplay:10.37,2013-10-11 01:56:00,
2013-10-10 21:01:00,64.4,50.2,29.89,North,1,0.0,0.0,60,0.00,CLR,,0.00,WeatherDisplay:10.37,2013-10-11 02:01:00,
2013-10-10 21:06:00,64.2,50.0,29.88,North,1,0.0,0.0,60,0.00,CLR,,0.00,WeatherDisplay:10.37,2013-10-11 02:06:00,
2013-10-10 21:11:00,64.2,50.0,29.88,North,1,0.0,0.0,60,0.00,CLR,,0.00,WeatherDisplay:10.37,2013-10-11 02:11:00,
2013-10-10 21:16:00,64.0,49.9,29.88,North,1,0.0,0.0,60,0.00,CLR,,0.00,WeatherDisplay:10.37,2013-10-11 02:16:00,
2013-10-10 21:21:00,63.9,50.1,29.88,North,1,0.0,0.0,61,0.00,CLR,,0.00,WeatherDisplay:10.37,2013-10-11 02:21:00,
2013-10-10 21:26:00,63.9,50.1,29.88,North,1,0.0,0.0,61,0.00,CLR,,0.00,WeatherDisplay:10.37,2013-10-11 02:26:00,
2013-10-10 21:31:00,63.7,50.0,29.88,North,1,0.0,0.0,61,0.00,CLR,,0.00,WeatherDisplay:10.37,2013-10-11 02:31:00,
2013-10-10 21:36:00,63.7,50.0,29.88,North,1,0.0,0.0,61,0.00,CLR,,0.00,WeatherDisplay:10.37,2013-10-11 02:36:00,
2013-10-10 21:41:00,63.7,50.0,29.88,North,1,0.0,0.0,61,0.00,CLR,,0.00,WeatherDisplay:10.37,2013-10-11 02:41:00,
2013-10-10 21:46:00,63.5,49.8,29.88,North,1,0.0,0.0,61,0.00,CLR,,0.00,WeatherDisplay:10.37,2013-10-11 02:46:00,
2013-10-10 21:51:00,63.3,50.1,29.88,North,1,0.0,0.0,62,0.00,CLR,,0.00,WeatherDisplay:10.37,2013-10-11 02:51:00,
2013-10-10 21:56:00,63.3,50.1,29.88,North,1,0.0,0.0,62,0.00,CLR,,0.00,WeatherDisplay:10.37,2013-10-11 02:56:00,
2013-10-10 22:01:00,63.0,49.7,29.88,North,1,0.0,0.0,62,0.00,CLR,,0.00,WeatherDisplay:10.37,2013-10-11 03:01:00,
2013-10-10 22:06:00,63.0,50.2,29.88,North,1,0.0,0.0,63,0.00,CLR,,0.00,WeatherDisplay:10.37,2013-10-11 03:06:00,
2013-10-10 22:11:00,63.0,50.2,29.88,North,1,0.0,0.0,63,0.00,CLR,,0.00,WeatherDisplay:10.37,2013-10-11 03:11:00,
2013-10-10 22:16:00,63.0,50.2,29.88,North,1,0.0,0.0,63,0.00,CLR,,0.00,WeatherDisplay:10.37,2013-10-11 03:16:00,
2013-10-10 22:21:00,62.8,50.0,29.88,North,1,0.0,0.0,63,0.00,CLR,,0.00,WeatherDisplay:10.37,2013-10-11 03:21:00,
2013-10-10 22:26:00,62.8,50.4,29.88,North,1,0.0,0.0,64,0.00,CLR,,0.00,WeatherDisplay:10.37,2013-10-11 03:26:00,
2013-10-10 22:31:00,62.8,50.4,29.88,North,1,0.0,0.0,64,0.00,CLR,,0.00,WeatherDisplay:10.37,2013-10-11 03:31:00,
2013-10-10 22:36:00,62.4,50.1,29.88,North,1,0.0,0.0,64,0.00,CLR,,0.00,WeatherDisplay:10.37,2013-10-11 03:36:00,
2013-10-10 22:41:00,62.4,50.1,29.88,North,1,0.0,0.0,64,0.00,CLR,,0.00,WeatherDisplay:10.37,2013-10-11 03:41:00,
2013-10-10 22:46:00,62.2,49.9,29.88,North,1,0.0,0.0,64,0.00,CLR,,0.00,WeatherDisplay:10.37,2013-10-11 03:46:00,
2013-10-10 22:51:00,62.1,50.2,29.87,North,1,0.0,0.0,65,0.00,CLR,,0.00,WeatherDisplay:10.37,2013-10-11 03:51:00,
2013-10-10 22:56:00,61.9,50.0,29.87,North,1,0.0,0.0,65,0.00,CLR,,0.00,WeatherDisplay:10.37,2013-10-11 03:56:00,
2013-10-10 23:01:00,61.7,50.2,29.86,North,1,0.0,0.0,66,0.00,CLR,,0.00,WeatherDisplay:10.37,2013-10-11 04:01:00,
2013-10-10 23:02:00,61.7,50.2,29.86,North,1,0.0,0.0,66,0.00,CLR,,0.00,WeatherDisplay:10.37,2013-10-11 04:02:00,
2013-10-10 23:07:00,61.5,50.1,29.86,North,1,0.0,0.0,66,0.00,CLR,,0.00,WeatherDisplay:10.37,2013-10-11 04:07:00,
2013-10-10 23:12:00,61.3,49.9,29.86,North,1,0.0,0.0,66,0.00,CLR,,0.00,WeatherDisplay:10.37,2013-10-11 04:12:00,
2013-10-10 23:17:00,61.2,50.1,29.86,North,1,0.0,0.0,67,0.00,CLR,,0.00,WeatherDisplay:10.37,2013-10-11 04:17:00,
2013-10-10 23:22:00,61.2,50.1,29.85,North,1,0.0,0.0,67,0.00,CLR,,0.00,WeatherDisplay:10.37,2013-10-11 04:22:00,
2013-10-10 23:27:00,61.2,50.1,29.85,North,1,0.0,0.0,67,0.00,CLR,,0.00,WeatherDisplay:10.37,2013-10-11 04:27:00,
2013-10-10 23:32:00,61.2,50.1,29.85,North,1,0.0,0.0,67,0.00,CLR,,0.00,WeatherDisplay:10.37,2013-10-11 04:32:00,
2013-10-10 23:37:00,61.2,50.5,29.85,North,1,0.0,0.0,68,0.00,CLR,,0.00,WeatherDisplay:10.37,2013-10-11 04:37:00,
2013-10-10 23:42:00,61.2,50.5,29.85,North,1,0.0,0.0,68,0.00,CLR,,0.00,WeatherDisplay:10.37,2013-10-11 04:42:00,
2013-10-10 23:47:00,61.2,50.5,29.85,North,1,0.0,0.0,68,0.00,CLR,,0.00,WeatherDisplay:10.37,2013-10-11 04:47:00,
2013-10-10 23:52:00,61.2,50.5,29.86,North,1,0.0,0.0,68,0.00,CLR,,0.00,WeatherDisplay:10.37,2013-10-11 04:52:00,
2013-10-10 23:57:00,61.0,50.3,29.86,North,1,0.0,0.0,68,0.00,CLR,,0.00,WeatherDisplay:10.37,2013-10-11 04:57:00,